sensor_id;sensor_type;location;lat;lon;timestamp;temperature;humidity
56076;DHT22;41951;49.022;12.066;2023-10-09T00:01:40;13.40;99.90
56076;DHT22;41951;49.022;12.066;2023-10-09T00:04:08;13.40;99.90
56076;DHT22;41951;49.022;12.066;2023-10-09T00:06:36;13.30;99.90
56076;DHT22;41951;49.022;12.066;2023-10-09T00:09:05;13.30;99.90
56076;DHT22;41951;49.022;12.066;2023-10-09T00:11:54;13.30;99.90
56076;DHT22;41951;49.022;12.066;2023-10-09T00:14:30;13.30;99.90
56076;DHT22;41951;49.022;12.066;2023-10-09T00:16:58;13.30;99.90
56076;DHT22;41951;49.022;12.066;2023-10-09T00:19:36;13.30;99.90
56076;DHT22;41951;49.022;12.066;2023-10-09T00:22:02;13.30;99.90
56076;DHT22;41951;49.022;12.066;2023-10-09T00:24:36;13.30;99.90
56076;DHT22;41951;49.022;12.066;2023-10-09T00:27:06;13.20;99.90
56076;DHT22;41951;49.022;12.066;2023-10-09T00:29:41;13.20;99.90
56076;DHT22;41951;49.022;12.066;2023-10-09T00:32:11;13.20;99.90
56076;DHT22;41951;49.022;12.066;2023-10-09T00:34:50;13.20;99.90
56076;DHT22;41951;49.022;12.066;2023-10-09T00:37:17;13.20;99.90
56076;DHT22;41951;49.022;12.066;2023-10-09T00:39:44;13.20;99.90
56076;DHT22;41951;49.022;12.066;2023-10-09T00:42:13;13.20;99.90
56076;DHT22;41951;49.022;12.066;2023-10-09T00:44:41;13.20;99.90
56076;DHT22;41951;49.022;12.066;2023-10-09T00:47:11;13.10;99.90
56076;DHT22;41951;49.022;12.066;2023-10-09T00:49:57;13.10;99.90
56076;DHT22;41951;49.022;12.066;2023-10-09T00:52:31;13.10;99.90
56076;DHT22;41951;49.022;12.066;2023-10-09T00:54:59;13.10;99.90
56076;DHT22;41951;49.022;12.066;2023-10-09T00:57:29;13.10;99.90
56076;DHT22;41951;49.022;12.066;2023-10-09T00:59:59;13.10;99.90
56076;DHT22;41951;49.022;12.066;2023-10-09T01:02:27;13.10;99.90
56076;DHT22;41951;49.022;12.066;2023-10-09T01:05:04;13.20;99.90
56076;DHT22;41951;49.022;12.066;2023-10-09T01:07:47;13.20;99.90
56076;DHT22;41951;49.022;12.066;2023-10-09T01:10:14;13.20;99.90
56076;DHT22;41951;49.022;12.066;2023-10-09T01:12:42;13.20;99.90
56076;DHT22;41951;49.022;12.066;2023-10-09T01:15:10;13.20;99.90
56076;DHT22;41951;49.022;12.066;2023-10-09T01:17:43;13.20;99.90
56076;DHT22;41951;49.022;12.066;2023-10-09T01:20:11;13.20;99.90
56076;DHT22;41951;49.022;12.066;2023-10-09T01:22:48;13.20;99.90
56076;DHT22;41951;49.022;12.066;2023-10-09T01:25:15;13.20;99.90
56076;DHT22;41951;49.022;12.066;2023-10-09T01:27:41;13.20;99.90
56076;DHT22;41951;49.022;12.066;2023-10-09T01:30:09;13.20;99.90
56076;DHT22;41951;49.022;12.066;2023-10-09T01:32:39;13.20;99.90
56076;DHT22;41951;49.022;12.066;2023-10-09T01:35:06;13.20;99.90
56076;DHT22;41951;49.022;12.066;2023-10-09T01:37:40;13.20;99.90
56076;DHT22;41951;49.022;12.066;2023-10-09T01:40:08;13.30;99.90
56076;DHT22;41951;49.022;12.066;2023-10-09T01:42:52;13.30;99.90
56076;DHT22;41951;49.022;12.066;2023-10-09T01:45:18;13.30;99.90
56076;DHT22;41951;49.022;12.066;2023-10-09T01:47:43;13.30;99.90
56076;DHT22;41951;49.022;12.066;2023-10-09T01:50:17;13.30;99.90
56076;DHT22;41951;49.022;12.066;2023-10-09T01:52:56;13.30;99.90
56076;DHT22;41951;49.022;12.066;2023-10-09T01:55:21;13.30;99.90
56076;DHT22;41951;49.022;12.066;2023-10-09T01:58:02;13.30;99.90
56076;DHT22;41951;49.022;12.066;2023-10-09T02:00:50;13.30;99.90
56076;DHT22;41951;49.022;12.066;2023-10-09T02:03:20;13.30;99.90
56076;DHT22;41951;49.022;12.066;2023-10-09T02:05:49;13.30;99.90
56076;DHT22;41951;49.022;12.066;2023-10-09T02:08:25;13.30;99.90
56076;DHT22;41951;49.022;12.066;2023-10-09T02:11:01;13.30;99.90
56076;DHT22;41951;49.022;12.066;2023-10-09T02:13:28;13.30;99.90
56076;DHT22;41951;49.022;12.066;2023-10-09T02:16:00;13.40;99.90
56076;DHT22;41951;49.022;12.066;2023-10-09T02:18:41;13.40;99.90
56076;DHT22;41951;49.022;12.066;2023-10-09T02:21:21;13.40;99.90
56076;DHT22;41951;49.022;12.066;2023-10-09T02:24:05;13.30;99.90
56076;DHT22;41951;49.022;12.066;2023-10-09T02:26:51;13.40;99.90
56076;DHT22;41951;49.022;12.066;2023-10-09T02:29:17;13.30;99.90
56076;DHT22;41951;49.022;12.066;2023-10-09T02:31:45;13.30;99.90
56076;DHT22;41951;49.022;12.066;2023-10-09T02:34:17;13.30;99.90
56076;DHT22;41951;49.022;12.066;2023-10-09T02:36:47;13.30;99.90
56076;DHT22;41951;49.022;12.066;2023-10-09T02:39:24;13.30;99.90
56076;DHT22;41951;49.022;12.066;2023-10-09T02:41:54;13.40;99.90
56076;DHT22;41951;49.022;12.066;2023-10-09T02:44:26;13.30;99.90
56076;DHT22;41951;49.022;12.066;2023-10-09T02:46:52;13.40;99.90
56076;DHT22;41951;49.022;12.066;2023-10-09T02:49:23;13.30;99.90
56076;DHT22;41951;49.022;12.066;2023-10-09T02:51:49;13.40;99.90
56076;DHT22;41951;49.022;12.066;2023-10-09T02:54:18;13.40;99.90
56076;DHT22;41951;49.022;12.066;2023-10-09T02:57:00;13.40;99.90
56076;DHT22;41951;49.022;12.066;2023-10-09T02:59:33;13.40;99.90
56076;DHT22;41951;49.022;12.066;2023-10-09T03:01:59;13.40;99.90
56076;DHT22;41951;49.022;12.066;2023-10-09T03:04:28;13.30;99.90
56076;DHT22;41951;49.022;12.066;2023-10-09T03:06:57;13.30;99.90
56076;DHT22;41951;49.022;12.066;2023-10-09T03:09:24;13.30;99.90
56076;DHT22;41951;49.022;12.066;2023-10-09T03:11:55;13.30;99.90
56076;DHT22;41951;49.022;12.066;2023-10-09T03:14:25;13.30;99.90
56076;DHT22;41951;49.022;12.066;2023-10-09T03:16:55;13.30;99.90
56076;DHT22;41951;49.022;12.066;2023-10-09T03:19:26;13.30;99.90
56076;DHT22;41951;49.022;12.066;2023-10-09T03:21:52;13.30;99.90
56076;DHT22;41951;49.022;12.066;2023-10-09T03:24:17;13.20;99.90
56076;DHT22;41951;49.022;12.066;2023-10-09T03:26:45;13.30;99.90
56076;DHT22;41951;49.022;12.066;2023-10-09T03:29:11;13.30;99.90
56076;DHT22;41951;49.022;12.066;2023-10-09T03:31:37;13.30;99.90
56076;DHT22;41951;49.022;12.066;2023-10-09T03:34:06;13.30;99.90
56076;DHT22;41951;49.022;12.066;2023-10-09T03:36:36;13.20;99.90
56076;DHT22;41951;49.022;12.066;2023-10-09T03:39:06;13.20;99.90
56076;DHT22;41951;49.022;12.066;2023-10-09T03:41:56;13.20;99.90
56076;DHT22;41951;49.022;12.066;2023-10-09T03:44:24;13.10;99.90
56076;DHT22;41951;49.022;12.066;2023-10-09T03:46:53;13.20;99.90
56076;DHT22;41951;49.022;12.066;2023-10-09T03:49:19;13.20;99.90
56076;DHT22;41951;49.022;12.066;2023-10-09T03:51:49;13.20;99.90
56076;DHT22;41951;49.022;12.066;2023-10-09T03:54:15;13.20;99.90
56076;DHT22;41951;49.022;12.066;2023-10-09T03:56:41;13.20;99.90
56076;DHT22;41951;49.022;12.066;2023-10-09T03:59:07;13.20;99.90
56076;DHT22;41951;49.022;12.066;2023-10-09T04:01:36;13.20;99.90
56076;DHT22;41951;49.022;12.066;2023-10-09T04:04:05;13.20;99.90
56076;DHT22;41951;49.022;12.066;2023-10-09T04:06:33;13.20;99.90
56076;DHT22;41951;49.022;12.066;2023-10-09T04:09:03;13.20;99.90
56076;DHT22;41951;49.022;12.066;2023-10-09T04:11:52;13.20;99.90
56076;DHT22;41951;49.022;12.066;2023-10-09T04:14:37;13.20;99.90
56076;DHT22;41951;49.022;12.066;2023-10-09T04:17:13;13.20;99.90
56076;DHT22;41951;49.022;12.066;2023-10-09T04:19:57;13.10;99.90
56076;DHT22;41951;49.022;12.066;2023-10-09T04:22:41;13.20;99.90
56076;DHT22;41951;49.022;12.066;2023-10-09T04:25:22;13.10;99.90
56076;DHT22;41951;49.022;12.066;2023-10-09T04:28:07;13.10;99.90
56076;DHT22;41951;49.022;12.066;2023-10-09T04:30:39;13.10;99.90
56076;DHT22;41951;49.022;12.066;2023-10-09T04:33:21;13.10;99.90
56076;DHT22;41951;49.022;12.066;2023-10-09T04:35:54;13.10;99.90
56076;DHT22;41951;49.022;12.066;2023-10-09T04:38:37;13.10;99.90
56076;DHT22;41951;49.022;12.066;2023-10-09T04:41:05;13.00;99.90
56076;DHT22;41951;49.022;12.066;2023-10-09T04:43:32;13.00;99.90
56076;DHT22;41951;49.022;12.066;2023-10-09T04:45:58;13.00;99.90
56076;DHT22;41951;49.022;12.066;2023-10-09T04:48:33;13.00;99.90
56076;DHT22;41951;49.022;12.066;2023-10-09T04:50:59;12.90;99.90
56076;DHT22;41951;49.022;12.066;2023-10-09T04:53:44;12.90;99.90
56076;DHT22;41951;49.022;12.066;2023-10-09T04:56:14;13.00;99.90
56076;DHT22;41951;49.022;12.066;2023-10-09T04:58:42;13.00;99.90
56076;DHT22;41951;49.022;12.066;2023-10-09T05:01:10;13.00;99.90
56076;DHT22;41951;49.022;12.066;2023-10-09T05:03:40;13.00;99.90
56076;DHT22;41951;49.022;12.066;2023-10-09T05:06:06;13.00;99.90
56076;DHT22;41951;49.022;12.066;2023-10-09T05:08:50;13.00;99.90
56076;DHT22;41951;49.022;12.066;2023-10-09T05:11:22;13.00;99.90
56076;DHT22;41951;49.022;12.066;2023-10-09T05:14:00;13.00;99.90
56076;DHT22;41951;49.022;12.066;2023-10-09T05:16:39;13.20;99.90
56076;DHT22;41951;49.022;12.066;2023-10-09T05:19:22;12.90;99.90
56076;DHT22;41951;49.022;12.066;2023-10-09T05:21:59;12.90;99.90
56076;DHT22;41951;49.022;12.066;2023-10-09T05:24:30;13.00;99.90
56076;DHT22;41951;49.022;12.066;2023-10-09T05:27:07;13.00;99.90
56076;DHT22;41951;49.022;12.066;2023-10-09T05:30:06;12.90;99.90
56076;DHT22;41951;49.022;12.066;2023-10-09T05:32:54;12.90;99.90
56076;DHT22;41951;49.022;12.066;2023-10-09T05:35:41;12.90;99.90
56076;DHT22;41951;49.022;12.066;2023-10-09T05:38:24;12.90;99.90
56076;DHT22;41951;49.022;12.066;2023-10-09T05:40:51;12.90;99.90
56076;DHT22;41951;49.022;12.066;2023-10-09T05:43:30;12.90;99.90
56076;DHT22;41951;49.022;12.066;2023-10-09T05:46:14;12.90;99.90
56076;DHT22;41951;49.022;12.066;2023-10-09T05:48:40;12.90;99.90
56076;DHT22;41951;49.022;12.066;2023-10-09T05:51:06;13.00;99.90
56076;DHT22;41951;49.022;12.066;2023-10-09T05:53:34;12.90;99.90
56076;DHT22;41951;49.022;12.066;2023-10-09T05:56:09;12.90;99.90
56076;DHT22;41951;49.022;12.066;2023-10-09T05:58:53;12.90;99.90
56076;DHT22;41951;49.022;12.066;2023-10-09T06:01:31;12.90;99.90
56076;DHT22;41951;49.022;12.066;2023-10-09T06:04:16;12.90;99.90
56076;DHT22;41951;49.022;12.066;2023-10-09T06:06:45;12.90;99.90
56076;DHT22;41951;49.022;12.066;2023-10-09T06:09:12;13.00;99.90
56076;DHT22;41951;49.022;12.066;2023-10-09T06:11:38;13.00;99.90
56076;DHT22;41951;49.022;12.066;2023-10-09T06:14:05;13.10;99.90
56076;DHT22;41951;49.022;12.066;2023-10-09T06:16:49;13.10;99.90
56076;DHT22;41951;49.022;12.066;2023-10-09T06:19:41;13.10;99.90
56076;DHT22;41951;49.022;12.066;2023-10-09T06:22:09;13.20;99.90
56076;DHT22;41951;49.022;12.066;2023-10-09T06:24:55;13.20;99.90
56076;DHT22;41951;49.022;12.066;2023-10-09T06:27:23;13.30;99.90
56076;DHT22;41951;49.022;12.066;2023-10-09T06:30:12;13.30;99.90
56076;DHT22;41951;49.022;12.066;2023-10-09T06:32:41;13.30;99.90
56076;DHT22;41951;49.022;12.066;2023-10-09T06:35:23;13.30;99.90
56076;DHT22;41951;49.022;12.066;2023-10-09T06:37:59;13.30;99.90
56076;DHT22;41951;49.022;12.066;2023-10-09T06:43:15;13.40;99.90
56076;DHT22;41951;49.022;12.066;2023-10-09T06:45:56;13.40;99.90
56076;DHT22;41951;49.022;12.066;2023-10-09T06:48:40;13.50;99.90
56076;DHT22;41951;49.022;12.066;2023-10-09T06:51:08;13.50;99.90
56076;DHT22;41951;49.022;12.066;2023-10-09T06:53:53;13.60;99.90
56076;DHT22;41951;49.022;12.066;2023-10-09T06:56:19;13.70;99.90
56076;DHT22;41951;49.022;12.066;2023-10-09T06:58:57;13.40;99.90
56076;DHT22;41951;49.022;12.066;2023-10-09T07:01:27;13.90;99.90
56076;DHT22;41951;49.022;12.066;2023-10-09T07:04:01;13.90;99.90
56076;DHT22;41951;49.022;12.066;2023-10-09T07:06:36;14.00;99.90
56076;DHT22;41951;49.022;12.066;2023-10-09T07:09:02;14.00;99.90
56076;DHT22;41951;49.022;12.066;2023-10-09T07:11:42;14.10;99.90
56076;DHT22;41951;49.022;12.066;2023-10-09T07:14:19;14.10;99.90
56076;DHT22;41951;49.022;12.066;2023-10-09T07:16:58;14.20;99.90
56076;DHT22;41951;49.022;12.066;2023-10-09T07:19:26;14.20;99.90
56076;DHT22;41951;49.022;12.066;2023-10-09T07:22:21;14.20;99.90
56076;DHT22;41951;49.022;12.066;2023-10-09T07:24:48;14.30;99.90
56076;DHT22;41951;49.022;12.066;2023-10-09T07:27:30;14.30;99.90
56076;DHT22;41951;49.022;12.066;2023-10-09T07:30:15;14.30;99.90
56076;DHT22;41951;49.022;12.066;2023-10-09T07:32:57;14.30;99.90
56076;DHT22;41951;49.022;12.066;2023-10-09T07:35:45;14.30;99.90
56076;DHT22;41951;49.022;12.066;2023-10-09T07:38:26;14.30;99.90
56076;DHT22;41951;49.022;12.066;2023-10-09T07:40:55;14.30;99.90
56076;DHT22;41951;49.022;12.066;2023-10-09T07:43:33;14.50;99.90
56076;DHT22;41951;49.022;12.066;2023-10-09T07:46:06;14.50;99.90
56076;DHT22;41951;49.022;12.066;2023-10-09T07:48:50;14.50;99.90
56076;DHT22;41951;49.022;12.066;2023-10-09T07:51:19;14.50;99.90
56076;DHT22;41951;49.022;12.066;2023-10-09T07:53:52;14.60;99.90
56076;DHT22;41951;49.022;12.066;2023-10-09T07:56:33;14.60;99.90
56076;DHT22;41951;49.022;12.066;2023-10-09T07:59:05;14.70;99.90
56076;DHT22;41951;49.022;12.066;2023-10-09T08:01:45;14.60;99.90
56076;DHT22;41951;49.022;12.066;2023-10-09T08:04:23;14.80;99.90
56076;DHT22;41951;49.022;12.066;2023-10-09T08:07:13;14.90;99.90
56076;DHT22;41951;49.022;12.066;2023-10-09T08:09:45;14.90;99.90
56076;DHT22;41951;49.022;12.066;2023-10-09T08:12:17;15.00;99.90
56076;DHT22;41951;49.022;12.066;2023-10-09T08:15:02;15.00;99.90
56076;DHT22;41951;49.022;12.066;2023-10-09T08:17:51;15.00;99.90
56076;DHT22;41951;49.022;12.066;2023-10-09T08:20:27;15.20;99.90
56076;DHT22;41951;49.022;12.066;2023-10-09T08:23:01;15.10;99.90
56076;DHT22;41951;49.022;12.066;2023-10-09T08:25:30;15.10;99.90
56076;DHT22;41951;49.022;12.066;2023-10-09T08:28:01;15.20;99.90
56076;DHT22;41951;49.022;12.066;2023-10-09T08:30:48;15.20;99.90
56076;DHT22;41951;49.022;12.066;2023-10-09T08:33:29;15.30;99.90
56076;DHT22;41951;49.022;12.066;2023-10-09T08:36:07;15.40;99.90
56076;DHT22;41951;49.022;12.066;2023-10-09T08:38:34;15.50;99.90
56076;DHT22;41951;49.022;12.066;2023-10-09T08:41:12;15.60;99.90
56076;DHT22;41951;49.022;12.066;2023-10-09T08:43:50;15.70;99.90
56076;DHT22;41951;49.022;12.066;2023-10-09T08:46:28;15.80;99.90
56076;DHT22;41951;49.022;12.066;2023-10-09T08:48:55;15.90;99.90
56076;DHT22;41951;49.022;12.066;2023-10-09T08:51:23;16.00;99.90
56076;DHT22;41951;49.022;12.066;2023-10-09T08:53:49;16.00;99.90
56076;DHT22;41951;49.022;12.066;2023-10-09T08:56:19;16.00;99.90
56076;DHT22;41951;49.022;12.066;2023-10-09T08:58:50;16.10;99.90
56076;DHT22;41951;49.022;12.066;2023-10-09T09:01:17;16.10;99.90
56076;DHT22;41951;49.022;12.066;2023-10-09T09:03:45;16.70;99.90
56076;DHT22;41951;49.022;12.066;2023-10-09T09:06:11;16.40;99.90
56076;DHT22;41951;49.022;12.066;2023-10-09T09:08:37;16.30;99.90
56076;DHT22;41951;49.022;12.066;2023-10-09T09:11:11;16.30;99.90
56076;DHT22;41951;49.022;12.066;2023-10-09T09:13:41;16.40;99.90
56076;DHT22;41951;49.022;12.066;2023-10-09T09:16:16;16.40;99.90
56076;DHT22;41951;49.022;12.066;2023-10-09T09:18:54;16.50;99.90
56076;DHT22;41951;49.022;12.066;2023-10-09T09:21:29;16.60;99.90
56076;DHT22;41951;49.022;12.066;2023-10-09T09:24:01;16.60;99.90
56076;DHT22;41951;49.022;12.066;2023-10-09T09:26:38;16.70;99.90
56076;DHT22;41951;49.022;12.066;2023-10-09T09:29:11;16.70;99.90
56076;DHT22;41951;49.022;12.066;2023-10-09T09:31:37;16.80;99.90
56076;DHT22;41951;49.022;12.066;2023-10-09T09:34:07;16.80;99.90
56076;DHT22;41951;49.022;12.066;2023-10-09T09:36:55;16.80;99.90
56076;DHT22;41951;49.022;12.066;2023-10-09T09:39:23;16.80;99.90
56076;DHT22;41951;49.022;12.066;2023-10-09T09:42:00;16.90;99.90
56076;DHT22;41951;49.022;12.066;2023-10-09T09:44:44;16.90;99.90
56076;DHT22;41951;49.022;12.066;2023-10-09T09:47:13;17.00;99.90
56076;DHT22;41951;49.022;12.066;2023-10-09T09:49:42;17.00;99.90
56076;DHT22;41951;49.022;12.066;2023-10-09T09:52:09;17.00;99.90
56076;DHT22;41951;49.022;12.066;2023-10-09T09:54:38;17.00;99.90
56076;DHT22;41951;49.022;12.066;2023-10-09T09:57:05;17.10;99.90
56076;DHT22;41951;49.022;12.066;2023-10-09T09:59:38;17.10;99.90
56076;DHT22;41951;49.022;12.066;2023-10-09T10:02:07;17.20;99.90
56076;DHT22;41951;49.022;12.066;2023-10-09T10:04:38;17.30;99.90
56076;DHT22;41951;49.022;12.066;2023-10-09T10:07:06;17.40;99.90
56076;DHT22;41951;49.022;12.066;2023-10-09T10:09:36;17.50;99.90
56076;DHT22;41951;49.022;12.066;2023-10-09T10:12:08;17.60;99.90
56076;DHT22;41951;49.022;12.066;2023-10-09T10:14:56;17.70;99.90
56076;DHT22;41951;49.022;12.066;2023-10-09T10:17:28;17.80;99.90
56076;DHT22;41951;49.022;12.066;2023-10-09T10:22:31;17.90;99.90
56076;DHT22;41951;49.022;12.066;2023-10-09T10:24:58;17.90;99.90
56076;DHT22;41951;49.022;12.066;2023-10-09T10:27:28;17.90;99.90
56076;DHT22;41951;49.022;12.066;2023-10-09T10:32:54;17.80;99.90
56076;DHT22;41951;49.022;12.066;2023-10-09T10:35:21;17.70;99.90
56076;DHT22;41951;49.022;12.066;2023-10-09T10:37:58;17.70;99.90
56076;DHT22;41951;49.022;12.066;2023-10-09T10:40:41;17.60;99.90
56076;DHT22;41951;49.022;12.066;2023-10-09T10:43:18;17.50;99.90
56076;DHT22;41951;49.022;12.066;2023-10-09T10:46:03;17.50;99.90
56076;DHT22;41951;49.022;12.066;2023-10-09T10:48:53;17.50;99.90
56076;DHT22;41951;49.022;12.066;2023-10-09T10:51:35;17.40;99.90
56076;DHT22;41951;49.022;12.066;2023-10-09T10:54:04;17.40;99.90
56076;DHT22;41951;49.022;12.066;2023-10-09T10:56:54;17.40;99.90
56076;DHT22;41951;49.022;12.066;2023-10-09T10:59:23;17.40;99.90
56076;DHT22;41951;49.022;12.066;2023-10-09T11:01:50;17.40;99.90
56076;DHT22;41951;49.022;12.066;2023-10-09T11:04:16;17.30;99.90
56076;DHT22;41951;49.022;12.066;2023-10-09T11:06:53;17.40;99.90
56076;DHT22;41951;49.022;12.066;2023-10-09T11:09:44;17.30;99.90
56076;DHT22;41951;49.022;12.066;2023-10-09T11:12:26;17.30;99.90
56076;DHT22;41951;49.022;12.066;2023-10-09T11:15:04;17.30;99.90
56076;DHT22;41951;49.022;12.066;2023-10-09T11:17:35;17.30;99.90
56076;DHT22;41951;49.022;12.066;2023-10-09T11:20:05;17.30;99.90
56076;DHT22;41951;49.022;12.066;2023-10-09T11:22:52;17.30;99.90
56076;DHT22;41951;49.022;12.066;2023-10-09T11:25:37;17.30;99.90
56076;DHT22;41951;49.022;12.066;2023-10-09T11:28:17;17.40;99.90
56076;DHT22;41951;49.022;12.066;2023-10-09T11:31:05;17.40;99.90
56076;DHT22;41951;49.022;12.066;2023-10-09T11:33:42;17.40;99.90
56076;DHT22;41951;49.022;12.066;2023-10-09T11:36:08;17.40;99.90
56076;DHT22;41951;49.022;12.066;2023-10-09T11:38:38;17.50;99.90
56076;DHT22;41951;49.022;12.066;2023-10-09T11:41:16;17.50;99.90
56076;DHT22;41951;49.022;12.066;2023-10-09T11:43:51;17.50;99.90
56076;DHT22;41951;49.022;12.066;2023-10-09T11:46:17;17.50;99.90
56076;DHT22;41951;49.022;12.066;2023-10-09T11:49:09;17.50;99.90
56076;DHT22;41951;49.022;12.066;2023-10-09T11:51:47;17.50;99.90
56076;DHT22;41951;49.022;12.066;2023-10-09T11:54:34;17.50;99.90
56076;DHT22;41951;49.022;12.066;2023-10-09T11:57:00;17.40;99.90
56076;DHT22;41951;49.022;12.066;2023-10-09T11:59:27;17.40;99.90
56076;DHT22;41951;49.022;12.066;2023-10-09T12:01:53;17.40;99.90
56076;DHT22;41951;49.022;12.066;2023-10-09T12:04:20;17.30;99.90
56076;DHT22;41951;49.022;12.066;2023-10-09T12:06:45;17.30;99.90
56076;DHT22;41951;49.022;12.066;2023-10-09T12:09:11;17.30;99.90
56076;DHT22;41951;49.022;12.066;2023-10-09T12:11:42;17.30;99.90
56076;DHT22;41951;49.022;12.066;2023-10-09T12:14:07;17.30;99.90
56076;DHT22;41951;49.022;12.066;2023-10-09T12:16:33;17.30;99.90
56076;DHT22;41951;49.022;12.066;2023-10-09T12:18:59;17.40;99.90
56076;DHT22;41951;49.022;12.066;2023-10-09T12:21:25;17.40;99.90
56076;DHT22;41951;49.022;12.066;2023-10-09T12:23:53;17.40;99.90
56076;DHT22;41951;49.022;12.066;2023-10-09T12:26:23;17.40;99.90
56076;DHT22;41951;49.022;12.066;2023-10-09T12:28:49;17.40;99.90
56076;DHT22;41951;49.022;12.066;2023-10-09T12:31:16;17.40;99.90
56076;DHT22;41951;49.022;12.066;2023-10-09T12:33:50;17.40;99.90
56076;DHT22;41951;49.022;12.066;2023-10-09T12:36:16;17.40;99.90
56076;DHT22;41951;49.022;12.066;2023-10-09T12:38:46;17.40;99.90
56076;DHT22;41951;49.022;12.066;2023-10-09T12:41:16;17.40;99.90
56076;DHT22;41951;49.022;12.066;2023-10-09T12:43:52;17.40;99.90
56076;DHT22;41951;49.022;12.066;2023-10-09T12:46:21;17.40;99.90
56076;DHT22;41951;49.022;12.066;2023-10-09T12:48:53;17.50;99.90
56076;DHT22;41951;49.022;12.066;2023-10-09T12:51:21;17.40;99.90
56076;DHT22;41951;49.022;12.066;2023-10-09T12:53:51;17.50;99.90
56076;DHT22;41951;49.022;12.066;2023-10-09T12:56:23;17.50;99.90
56076;DHT22;41951;49.022;12.066;2023-10-09T12:58:48;17.40;99.90
56076;DHT22;41951;49.022;12.066;2023-10-09T13:01:23;17.40;99.90
56076;DHT22;41951;49.022;12.066;2023-10-09T13:03:49;17.40;99.90
56076;DHT22;41951;49.022;12.066;2023-10-09T13:06:15;17.30;99.90
56076;DHT22;41951;49.022;12.066;2023-10-09T13:08:49;17.30;99.90
56076;DHT22;41951;49.022;12.066;2023-10-09T13:11:14;17.30;99.90
56076;DHT22;41951;49.022;12.066;2023-10-09T13:13:44;17.30;99.90
56076;DHT22;41951;49.022;12.066;2023-10-09T13:16:20;17.30;99.90
56076;DHT22;41951;49.022;12.066;2023-10-09T13:18:49;17.30;99.90
56076;DHT22;41951;49.022;12.066;2023-10-09T13:21:16;17.30;99.90
56076;DHT22;41951;49.022;12.066;2023-10-09T13:23:42;17.30;99.90
56076;DHT22;41951;49.022;12.066;2023-10-09T13:26:13;17.40;99.90
56076;DHT22;41951;49.022;12.066;2023-10-09T13:28:45;17.30;99.90
56076;DHT22;41951;49.022;12.066;2023-10-09T13:31:15;17.30;99.90
56076;DHT22;41951;49.022;12.066;2023-10-09T13:33:42;17.40;99.90
56076;DHT22;41951;49.022;12.066;2023-10-09T13:36:26;17.40;99.90
56076;DHT22;41951;49.022;12.066;2023-10-09T13:39:05;17.40;99.90
56076;DHT22;41951;49.022;12.066;2023-10-09T13:41:54;17.50;99.90
56076;DHT22;41951;49.022;12.066;2023-10-09T13:44:30;17.50;99.90
56076;DHT22;41951;49.022;12.066;2023-10-09T13:47:03;17.60;99.90
56076;DHT22;41951;49.022;12.066;2023-10-09T13:49:31;17.60;99.90
56076;DHT22;41951;49.022;12.066;2023-10-09T13:51:58;17.80;99.90
56076;DHT22;41951;49.022;12.066;2023-10-09T13:54:25;17.80;99.90
56076;DHT22;41951;49.022;12.066;2023-10-09T13:57:05;17.80;99.90
56076;DHT22;41951;49.022;12.066;2023-10-09T13:59:35;17.80;99.90
56076;DHT22;41951;49.022;12.066;2023-10-09T14:02:02;17.80;99.90
56076;DHT22;41951;49.022;12.066;2023-10-09T14:04:34;17.80;99.90
56076;DHT22;41951;49.022;12.066;2023-10-09T14:06:59;17.80;99.90
56076;DHT22;41951;49.022;12.066;2023-10-09T14:09:27;17.80;99.90
56076;DHT22;41951;49.022;12.066;2023-10-09T14:12:01;17.80;99.90
56076;DHT22;41951;49.022;12.066;2023-10-09T14:14:43;17.80;99.90
56076;DHT22;41951;49.022;12.066;2023-10-09T14:17:16;17.80;99.90
56076;DHT22;41951;49.022;12.066;2023-10-09T14:19:47;17.80;99.90
56076;DHT22;41951;49.022;12.066;2023-10-09T14:22:23;17.90;99.90
56076;DHT22;41951;49.022;12.066;2023-10-09T14:24:53;17.90;99.90
56076;DHT22;41951;49.022;12.066;2023-10-09T14:27:24;18.00;99.90
56076;DHT22;41951;49.022;12.066;2023-10-09T14:29:55;18.00;99.90
56076;DHT22;41951;49.022;12.066;2023-10-09T14:32:22;18.10;99.90
56076;DHT22;41951;49.022;12.066;2023-10-09T14:34:55;18.10;99.90
56076;DHT22;41951;49.022;12.066;2023-10-09T14:37:26;18.20;99.90
56076;DHT22;41951;49.022;12.066;2023-10-09T14:39:52;18.20;99.90
56076;DHT22;41951;49.022;12.066;2023-10-09T14:42:18;18.20;99.90
56076;DHT22;41951;49.022;12.066;2023-10-09T14:44:46;18.20;99.90
56076;DHT22;41951;49.022;12.066;2023-10-09T14:47:12;18.20;99.90
56076;DHT22;41951;49.022;12.066;2023-10-09T14:49:39;18.20;99.90
56076;DHT22;41951;49.022;12.066;2023-10-09T14:52:13;18.20;99.90
56076;DHT22;41951;49.022;12.066;2023-10-09T14:54:42;18.20;99.90
56076;DHT22;41951;49.022;12.066;2023-10-09T14:57:10;18.20;99.90
56076;DHT22;41951;49.022;12.066;2023-10-09T14:59:37;18.20;99.90
56076;DHT22;41951;49.022;12.066;2023-10-09T15:02:03;18.20;99.90
56076;DHT22;41951;49.022;12.066;2023-10-09T15:04:31;18.20;99.90
56076;DHT22;41951;49.022;12.066;2023-10-09T15:06:56;18.30;99.90
56076;DHT22;41951;49.022;12.066;2023-10-09T15:09:22;18.20;99.90
56076;DHT22;41951;49.022;12.066;2023-10-09T15:11:49;18.20;99.90
56076;DHT22;41951;49.022;12.066;2023-10-09T15:14:15;18.20;99.90
56076;DHT22;41951;49.022;12.066;2023-10-09T15:16:44;18.20;99.90
56076;DHT22;41951;49.022;12.066;2023-10-09T15:19:09;18.20;99.90
56076;DHT22;41951;49.022;12.066;2023-10-09T15:21:36;18.20;99.90
56076;DHT22;41951;49.022;12.066;2023-10-09T15:24:09;18.20;99.90
56076;DHT22;41951;49.022;12.066;2023-10-09T15:26:35;18.20;99.90
56076;DHT22;41951;49.022;12.066;2023-10-09T15:29:01;18.20;99.90
56076;DHT22;41951;49.022;12.066;2023-10-09T15:31:32;18.20;99.90
56076;DHT22;41951;49.022;12.066;2023-10-09T15:33:58;18.20;99.90
56076;DHT22;41951;49.022;12.066;2023-10-09T15:36:24;18.20;99.90
56076;DHT22;41951;49.022;12.066;2023-10-09T15:38:54;18.20;99.90
56076;DHT22;41951;49.022;12.066;2023-10-09T15:41:27;18.20;99.90
56076;DHT22;41951;49.022;12.066;2023-10-09T15:43:56;18.20;99.90
56076;DHT22;41951;49.022;12.066;2023-10-09T15:46:23;18.20;99.90
56076;DHT22;41951;49.022;12.066;2023-10-09T15:48:48;18.20;99.90
56076;DHT22;41951;49.022;12.066;2023-10-09T15:51:16;18.20;99.90
56076;DHT22;41951;49.022;12.066;2023-10-09T15:53:45;18.20;99.90
56076;DHT22;41951;49.022;12.066;2023-10-09T15:56:12;18.20;99.90
56076;DHT22;41951;49.022;12.066;2023-10-09T15:58:41;18.20;99.90